Richmond, VA (23298)

11:19 PM EDT on July 23, 2016 (GMT -0400)
Rocketts Landing | | Change Station

Elev 49 ft 37.52 °N, 77.41 °W | Updated 40 seconds ago

Partly Cloudy
Partly Cloudy
84.6 °F
Feels Like 93 °F
N
1.7
Wind Variable Wind from WNW

Today
High -- | Low -- °F
--% Chance of Precip.
Yesterday
High -- | Low -- °F
Precip. -- in
Pressure 29.95 in
Visibility 10.0 miles
Clouds Few 25000 ft
Heat Index 93 °F
Dew Point 75 °F
Humidity 72%
Rainfall 0.00 in
Snow Depth Not available.
6:06 AM 8:25 PM
Waning Gibbous, 80% visible
METAR KRIC 240254Z 21007KT 10SM FEW250 27/24 A2994 RMK AO2 SLP141 T02720239 51013
Pressure 29.95 in
Visibility 10.0 miles
Clouds Few 25000 ft
Heat Index 93 °F
Dew Point 75 °F
Humidity 72%
Rainfall 0.00 in
Snow Depth Not available.
6:06 AM 8:25 PM
Waning Gibbous, 80% visible
METAR KRIC 240254Z 21007KT 10SM FEW250 27/24 A2994 RMK AO2 SLP141 T02720239 51013

10-Day Weather Forecast

Almanac

Astronomy

Jul. 23, 2016 Rise Set
Actual Time
Civil Twilight
Nautical Twilight
Astronomical Twilight
Moon
Length of Visible Light
Length of Day
Tomorrow will be .
, % of the Moon is Illuminated

Today's Extremes

State Highs State Lows

Community

WunderPhotos

Upload Photos

1,927,016 photos uploaded!

WunderBlog® & News

Nearby

Air Quality

  Air Quality AQ Index Pollutant
Not available.

Snow Depth

Station Depth Elevation

Earthquake Activity

City Distance Mag. Time & Date
Minimum magnitude displayed is 2.5.

Coastal Water Temperatures

Place Temperature

Stations

Nearby Weather Stations

Station Location Temp. Windchill Dew Point Humidity Wind Precip. Elev Updated Type
                   

Watches & Warnings

There are currently no watches in effect.